sensor_id;sensor_type;location;lat;lon;timestamp;P1;durP1;ratioP1;P2;durP2;ratioP2
70138;SDS011;57507;43.056;0.150;2022-12-29T00:01:27;2.25;;;1.05;;
70138;SDS011;57507;43.056;0.150;2022-12-29T00:03:54;0.80;;;0.43;;
70138;SDS011;57507;43.056;0.150;2022-12-29T00:06:21;3.22;;;0.82;;
70138;SDS011;57507;43.056;0.150;2022-12-29T00:08:48;1.73;;;0.80;;
70138;SDS011;57507;43.056;0.150;2022-12-29T00:11:15;2.47;;;0.93;;
70138;SDS011;57507;43.056;0.150;2022-12-29T00:13:42;3.60;;;1.08;;
70138;SDS011;57507;43.056;0.150;2022-12-29T00:16:28;3.67;;;0.90;;
70138;SDS011;57507;43.056;0.150;2022-12-29T00:18:55;3.75;;;1.02;;
70138;SDS011;57507;43.056;0.150;2022-12-29T00:21:22;1.45;;;0.60;;
70138;SDS011;57507;43.056;0.150;2022-12-29T00:24:15;2.42;;;0.93;;
70138;SDS011;57507;43.056;0.150;2022-12-29T00:27:12;1.37;;;0.60;;
70138;SDS011;57507;43.056;0.150;2022-12-29T00:29:55;2.03;;;0.80;;
70138;SDS011;57507;43.056;0.150;2022-12-29T00:32:40;2.05;;;0.60;;
70138;SDS011;57507;43.056;0.150;2022-12-29T00:35:31;8.57;;;1.10;;
70138;SDS011;57507;43.056;0.150;2022-12-29T00:37:59;4.93;;;1.23;;
70138;SDS011;57507;43.056;0.150;2022-12-29T00:40:45;0.77;;;0.50;;
70138;SDS011;57507;43.056;0.150;2022-12-29T00:43:30;1.73;;;0.70;;
70138;SDS011;57507;43.056;0.150;2022-12-29T00:46:15;3.20;;;0.80;;
70138;SDS011;57507;43.056;0.150;2022-12-29T00:48:42;2.08;;;0.70;;
70138;SDS011;57507;43.056;0.150;2022-12-29T00:51:27;2.90;;;0.68;;
70138;SDS011;57507;43.056;0.150;2022-12-29T00:53:54;3.85;;;0.80;;
70138;SDS011;57507;43.056;0.150;2022-12-29T00:56:20;2.35;;;0.80;;
70138;SDS011;57507;43.056;0.150;2022-12-29T00:58:47;1.85;;;0.70;;
70138;SDS011;57507;43.056;0.150;2022-12-29T01:01:13;2.38;;;0.70;;
70138;SDS011;57507;43.056;0.150;2022-12-29T01:03:40;1.27;;;0.50;;
70138;SDS011;57507;43.056;0.150;2022-12-29T01:06:07;3.22;;;0.70;;
70138;SDS011;57507;43.056;0.150;2022-12-29T01:08:34;0.88;;;0.50;;
70138;SDS011;57507;43.056;0.150;2022-12-29T01:11:02;1.00;;;0.73;;
70138;SDS011;57507;43.056;0.150;2022-12-29T01:13:29;1.88;;;0.63;;
70138;SDS011;57507;43.056;0.150;2022-12-29T01:15:56;5.47;;;0.65;;
70138;SDS011;57507;43.056;0.150;2022-12-29T01:18:23;1.02;;;0.45;;
70138;SDS011;57507;43.056;0.150;2022-12-29T01:20:50;1.17;;;0.57;;
70138;SDS011;57507;43.056;0.150;2022-12-29T01:23:17;2.28;;;0.50;;
70138;SDS011;57507;43.056;0.150;2022-12-29T01:25:43;3.33;;;0.70;;
70138;SDS011;57507;43.056;0.150;2022-12-29T01:28:10;2.50;;;0.50;;
70138;SDS011;57507;43.056;0.150;2022-12-29T01:30:36;1.63;;;0.65;;
70138;SDS011;57507;43.056;0.150;2022-12-29T01:33:03;1.88;;;0.95;;
70138;SDS011;57507;43.056;0.150;2022-12-29T01:35:30;2.60;;;0.47;;
70138;SDS011;57507;43.056;0.150;2022-12-29T01:37:57;1.33;;;0.57;;
70138;SDS011;57507;43.056;0.150;2022-12-29T01:40:23;2.83;;;0.68;;
70138;SDS011;57507;43.056;0.150;2022-12-29T01:42:50;2.40;;;0.75;;
70138;SDS011;57507;43.056;0.150;2022-12-29T01:45:17;1.67;;;0.65;;
70138;SDS011;57507;43.056;0.150;2022-12-29T01:47:45;1.65;;;0.60;;
70138;SDS011;57507;43.056;0.150;2022-12-29T01:50:14;1.48;;;0.63;;
70138;SDS011;57507;43.056;0.150;2022-12-29T01:52:44;0.93;;;0.40;;
70138;SDS011;57507;43.056;0.150;2022-12-29T01:55:14;4.50;;;0.70;;
70138;SDS011;57507;43.056;0.150;2022-12-29T01:57:40;2.63;;;0.50;;
70138;SDS011;57507;43.056;0.150;2022-12-29T02:00:10;0.68;;;0.38;;
70138;SDS011;57507;43.056;0.150;2022-12-29T02:02:37;0.70;;;0.40;;
70138;SDS011;57507;43.056;0.150;2022-12-29T02:05:27;0.90;;;0.50;;
70138;SDS011;57507;43.056;0.150;2022-12-29T02:07:50;2.28;;;0.40;;
70138;SDS011;57507;43.056;0.150;2022-12-29T02:10:21;1.67;;;0.50;;
70138;SDS011;57507;43.056;0.150;2022-12-29T02:12:49;1.55;;;0.38;;
70138;SDS011;57507;43.056;0.150;2022-12-29T02:15:16;1.05;;;0.50;;
70138;SDS011;57507;43.056;0.150;2022-12-29T02:30:49;3.42;;;0.80;;
70138;SDS011;57507;43.056;0.150;2022-12-29T02:36:22;1.70;;;0.50;;
70138;SDS011;57507;43.056;0.150;2022-12-29T02:39:04;0.57;;;0.40;;
70138;SDS011;57507;43.056;0.150;2022-12-29T02:41:33;1.60;;;0.40;;
70138;SDS011;57507;43.056;0.150;2022-12-29T02:46:28;1.42;;;0.40;;
70138;SDS011;57507;43.056;0.150;2022-12-29T02:51:29;0.50;;;0.47;;
70138;SDS011;57507;43.056;0.150;2022-12-29T02:53:58;3.13;;;0.73;;
70138;SDS011;57507;43.056;0.150;2022-12-29T02:56:44;1.48;;;0.43;;
70138;SDS011;57507;43.056;0.150;2022-12-29T02:59:10;2.30;;;0.90;;
70138;SDS011;57507;43.056;0.150;2022-12-29T03:01:58;1.55;;;0.50;;
70138;SDS011;57507;43.056;0.150;2022-12-29T03:07:18;2.35;;;0.50;;
70138;SDS011;57507;43.056;0.150;2022-12-29T03:12:40;0.98;;;0.40;;
70138;SDS011;57507;43.056;0.150;2022-12-29T03:15:39;1.42;;;0.47;;
70138;SDS011;57507;43.056;0.150;2022-12-29T03:18:28;2.50;;;1.05;;
70138;SDS011;57507;43.056;0.150;2022-12-29T03:21:00;3.23;;;0.57;;
70138;SDS011;57507;43.056;0.150;2022-12-29T03:23:29;0.98;;;0.40;;
70138;SDS011;57507;43.056;0.150;2022-12-29T03:25:57;1.30;;;0.60;;
70138;SDS011;57507;43.056;0.150;2022-12-29T03:28:27;2.50;;;0.70;;
70138;SDS011;57507;43.056;0.150;2022-12-29T03:30:55;2.22;;;0.60;;
70138;SDS011;57507;43.056;0.150;2022-12-29T03:33:25;2.97;;;0.50;;
70138;SDS011;57507;43.056;0.150;2022-12-29T03:35:53;2.63;;;0.60;;
70138;SDS011;57507;43.056;0.150;2022-12-29T03:38:39;1.98;;;0.60;;
70138;SDS011;57507;43.056;0.150;2022-12-29T03:41:08;2.25;;;0.40;;
70138;SDS011;57507;43.056;0.150;2022-12-29T03:43:37;3.40;;;0.52;;
70138;SDS011;57507;43.056;0.150;2022-12-29T03:46:04;1.90;;;0.60;;
70138;SDS011;57507;43.056;0.150;2022-12-29T03:48:30;1.83;;;0.60;;
70138;SDS011;57507;43.056;0.150;2022-12-29T03:50:58;0.65;;;0.40;;
70138;SDS011;57507;43.056;0.150;2022-12-29T03:53:25;1.58;;;0.47;;
70138;SDS011;57507;43.056;0.150;2022-12-29T03:55:51;2.25;;;0.50;;
70138;SDS011;57507;43.056;0.150;2022-12-29T03:58:18;1.23;;;0.45;;
70138;SDS011;57507;43.056;0.150;2022-12-29T04:00:44;1.90;;;0.35;;
70138;SDS011;57507;43.056;0.150;2022-12-29T04:03:11;1.88;;;0.77;;
70138;SDS011;57507;43.056;0.150;2022-12-29T04:05:37;2.20;;;0.35;;
70138;SDS011;57507;43.056;0.150;2022-12-29T04:08:22;3.78;;;0.45;;
70138;SDS011;57507;43.056;0.150;2022-12-29T04:10:49;1.45;;;0.52;;
70138;SDS011;57507;43.056;0.150;2022-12-29T04:13:16;1.75;;;0.60;;
70138;SDS011;57507;43.056;0.150;2022-12-29T04:15:43;1.58;;;0.40;;
70138;SDS011;57507;43.056;0.150;2022-12-29T04:18:10;1.65;;;0.60;;
70138;SDS011;57507;43.056;0.150;2022-12-29T04:20:37;1.65;;;0.75;;
70138;SDS011;57507;43.056;0.150;2022-12-29T04:23:22;1.02;;;0.60;;
70138;SDS011;57507;43.056;0.150;2022-12-29T04:25:48;1.85;;;0.50;;
70138;SDS011;57507;43.056;0.150;2022-12-29T04:28:15;1.67;;;0.55;;
70138;SDS011;57507;43.056;0.150;2022-12-29T04:30:45;3.85;;;0.70;;
70138;SDS011;57507;43.056;0.150;2022-12-29T04:33:11;0.47;;;0.40;;
70138;SDS011;57507;43.056;0.150;2022-12-29T04:35:38;2.63;;;0.40;;
70138;SDS011;57507;43.056;0.150;2022-12-29T04:38:05;0.80;;;0.40;;
70138;SDS011;57507;43.056;0.150;2022-12-29T04:40:32;3.45;;;0.70;;
70138;SDS011;57507;43.056;0.150;2022-12-29T04:42:59;1.20;;;0.60;;
70138;SDS011;57507;43.056;0.150;2022-12-29T04:45:25;1.30;;;0.50;;
70138;SDS011;57507;43.056;0.150;2022-12-29T04:47:52;2.47;;;0.30;;
70138;SDS011;57507;43.056;0.150;2022-12-29T04:50:18;2.05;;;0.32;;
70138;SDS011;57507;43.056;0.150;2022-12-29T04:52:45;1.10;;;0.30;;
70138;SDS011;57507;43.056;0.150;2022-12-29T04:55:12;1.63;;;0.30;;
70138;SDS011;57507;43.056;0.150;2022-12-29T04:57:38;1.38;;;0.40;;
70138;SDS011;57507;43.056;0.150;2022-12-29T05:00:05;1.17;;;0.47;;
70138;SDS011;57507;43.056;0.150;2022-12-29T05:02:34;2.22;;;0.52;;
70138;SDS011;57507;43.056;0.150;2022-12-29T05:05:00;1.70;;;0.70;;
70138;SDS011;57507;43.056;0.150;2022-12-29T05:07:27;0.60;;;0.50;;
70138;SDS011;57507;43.056;0.150;2022-12-29T05:09:53;1.48;;;0.43;;
70138;SDS011;57507;43.056;0.150;2022-12-29T05:12:20;1.58;;;0.85;;
70138;SDS011;57507;43.056;0.150;2022-12-29T05:14:46;1.33;;;0.50;;
70138;SDS011;57507;43.056;0.150;2022-12-29T05:17:13;1.40;;;0.40;;
70138;SDS011;57507;43.056;0.150;2022-12-29T05:19:40;1.25;;;0.40;;
70138;SDS011;57507;43.056;0.150;2022-12-29T05:22:06;1.80;;;0.63;;
70138;SDS011;57507;43.056;0.150;2022-12-29T05:24:33;1.20;;;0.50;;
70138;SDS011;57507;43.056;0.150;2022-12-29T05:26:59;1.40;;;0.55;;
70138;SDS011;57507;43.056;0.150;2022-12-29T05:29:26;0.85;;;0.40;;
70138;SDS011;57507;43.056;0.150;2022-12-29T05:31:53;0.95;;;0.38;;
70138;SDS011;57507;43.056;0.150;2022-12-29T05:34:19;1.35;;;0.30;;
70138;SDS011;57507;43.056;0.150;2022-12-29T05:36:46;1.15;;;0.50;;
70138;SDS011;57507;43.056;0.150;2022-12-29T05:39:12;0.93;;;0.70;;
70138;SDS011;57507;43.056;0.150;2022-12-29T05:41:39;1.13;;;0.30;;
70138;SDS011;57507;43.056;0.150;2022-12-29T05:44:06;0.68;;;0.40;;
70138;SDS011;57507;43.056;0.150;2022-12-29T05:46:32;0.32;;;0.28;;
70138;SDS011;57507;43.056;0.150;2022-12-29T05:48:59;0.40;;;0.25;;
70138;SDS011;57507;43.056;0.150;2022-12-29T05:51:25;1.95;;;0.35;;
70138;SDS011;57507;43.056;0.150;2022-12-29T05:53:52;0.35;;;0.30;;
70138;SDS011;57507;43.056;0.150;2022-12-29T05:56:19;0.80;;;0.50;;
70138;SDS011;57507;43.056;0.150;2022-12-29T05:58:45;1.00;;;0.30;;
70138;SDS011;57507;43.056;0.150;2022-12-29T06:01:12;0.50;;;0.50;;
70138;SDS011;57507;43.056;0.150;2022-12-29T06:03:39;1.85;;;0.50;;
70138;SDS011;57507;43.056;0.150;2022-12-29T06:06:05;1.98;;;0.40;;
70138;SDS011;57507;43.056;0.150;2022-12-29T06:08:32;1.30;;;0.30;;
70138;SDS011;57507;43.056;0.150;2022-12-29T06:10:59;1.30;;;0.30;;
70138;SDS011;57507;43.056;0.150;2022-12-29T06:13:26;0.73;;;0.50;;
70138;SDS011;57507;43.056;0.150;2022-12-29T06:15:52;1.25;;;0.60;;
70138;SDS011;57507;43.056;0.150;2022-12-29T06:18:19;0.77;;;0.40;;
70138;SDS011;57507;43.056;0.150;2022-12-29T06:20:46;1.00;;;0.47;;
70138;SDS011;57507;43.056;0.150;2022-12-29T06:23:12;2.55;;;0.40;;
70138;SDS011;57507;43.056;0.150;2022-12-29T06:25:39;1.90;;;0.45;;
70138;SDS011;57507;43.056;0.150;2022-12-29T06:28:06;1.42;;;0.32;;
70138;SDS011;57507;43.056;0.150;2022-12-29T06:30:33;0.63;;;0.32;;
70138;SDS011;57507;43.056;0.150;2022-12-29T06:32:59;0.30;;;0.30;;
70138;SDS011;57507;43.056;0.150;2022-12-29T06:35:26;1.42;;;0.40;;
70138;SDS011;57507;43.056;0.150;2022-12-29T06:37:53;1.42;;;0.43;;
70138;SDS011;57507;43.056;0.150;2022-12-29T06:40:20;0.55;;;0.45;;
70138;SDS011;57507;43.056;0.150;2022-12-29T06:42:47;1.58;;;0.70;;
70138;SDS011;57507;43.056;0.150;2022-12-29T06:45:13;0.70;;;0.30;;
70138;SDS011;57507;43.056;0.150;2022-12-29T06:47:40;1.10;;;0.55;;
70138;SDS011;57507;43.056;0.150;2022-12-29T06:50:07;0.65;;;0.40;;
70138;SDS011;57507;43.056;0.150;2022-12-29T06:52:34;1.85;;;0.50;;
70138;SDS011;57507;43.056;0.150;2022-12-29T06:55:01;1.00;;;0.50;;
70138;SDS011;57507;43.056;0.150;2022-12-29T06:57:27;1.55;;;0.82;;
70138;SDS011;57507;43.056;0.150;2022-12-29T06:59:54;1.13;;;0.40;;
70138;SDS011;57507;43.056;0.150;2022-12-29T07:02:23;1.98;;;0.70;;
70138;SDS011;57507;43.056;0.150;2022-12-29T07:04:53;1.75;;;0.65;;
70138;SDS011;57507;43.056;0.150;2022-12-29T07:07:20;1.33;;;0.35;;
70138;SDS011;57507;43.056;0.150;2022-12-29T07:09:47;3.10;;;0.60;;
70138;SDS011;57507;43.056;0.150;2022-12-29T07:12:13;0.57;;;0.30;;
70138;SDS011;57507;43.056;0.150;2022-12-29T07:14:40;3.03;;;0.68;;
70138;SDS011;57507;43.056;0.150;2022-12-29T07:17:07;1.58;;;0.43;;
70138;SDS011;57507;43.056;0.150;2022-12-29T07:19:33;1.52;;;0.63;;
70138;SDS011;57507;43.056;0.150;2022-12-29T07:22:00;1.63;;;0.50;;
70138;SDS011;57507;43.056;0.150;2022-12-29T07:24:27;2.60;;;0.57;;
70138;SDS011;57507;43.056;0.150;2022-12-29T07:26:54;0.95;;;0.60;;
70138;SDS011;57507;43.056;0.150;2022-12-29T07:29:21;1.27;;;0.52;;
70138;SDS011;57507;43.056;0.150;2022-12-29T07:31:47;0.65;;;0.47;;
70138;SDS011;57507;43.056;0.150;2022-12-29T07:34:14;3.35;;;0.45;;
70138;SDS011;57507;43.056;0.150;2022-12-29T07:36:41;5.97;;;0.60;;
70138;SDS011;57507;43.056;0.150;2022-12-29T07:39:08;1.45;;;0.50;;
70138;SDS011;57507;43.056;0.150;2022-12-29T07:41:34;3.47;;;0.60;;
70138;SDS011;57507;43.056;0.150;2022-12-29T07:44:01;0.98;;;0.40;;
70138;SDS011;57507;43.056;0.150;2022-12-29T07:46:28;1.42;;;0.40;;
70138;SDS011;57507;43.056;0.150;2022-12-29T07:48:55;2.15;;;0.40;;
70138;SDS011;57507;43.056;0.150;2022-12-29T07:51:21;1.10;;;0.35;;
70138;SDS011;57507;43.056;0.150;2022-12-29T07:53:48;3.08;;;0.32;;
70138;SDS011;57507;43.056;0.150;2022-12-29T07:56:14;0.98;;;0.22;;
70138;SDS011;57507;43.056;0.150;2022-12-29T07:58:41;0.38;;;0.30;;
70138;SDS011;57507;43.056;0.150;2022-12-29T08:01:08;1.52;;;0.40;;
70138;SDS011;57507;43.056;0.150;2022-12-29T08:03:35;1.02;;;0.40;;
70138;SDS011;57507;43.056;0.150;2022-12-29T08:06:02;1.75;;;0.45;;
70138;SDS011;57507;43.056;0.150;2022-12-29T08:08:28;0.45;;;0.30;;
70138;SDS011;57507;43.056;0.150;2022-12-29T08:10:55;0.85;;;0.30;;
70138;SDS011;57507;43.056;0.150;2022-12-29T08:13:22;1.60;;;0.50;;
70138;SDS011;57507;43.056;0.150;2022-12-29T08:15:48;1.17;;;0.63;;
70138;SDS011;57507;43.056;0.150;2022-12-29T08:18:15;1.27;;;0.40;;
70138;SDS011;57507;43.056;0.150;2022-12-29T08:20:41;1.77;;;0.68;;
70138;SDS011;57507;43.056;0.150;2022-12-29T08:23:08;0.63;;;0.40;;
70138;SDS011;57507;43.056;0.150;2022-12-29T08:25:35;0.65;;;0.40;;
70138;SDS011;57507;43.056;0.150;2022-12-29T08:28:01;1.63;;;0.60;;
70138;SDS011;57507;43.056;0.150;2022-12-29T08:30:28;1.17;;;0.50;;
70138;SDS011;57507;43.056;0.150;2022-12-29T08:32:54;1.40;;;0.43;;
70138;SDS011;57507;43.056;0.150;2022-12-29T08:35:21;0.65;;;0.30;;
70138;SDS011;57507;43.056;0.150;2022-12-29T08:37:47;1.95;;;0.32;;
70138;SDS011;57507;43.056;0.150;2022-12-29T08:40:14;0.82;;;0.60;;
70138;SDS011;57507;43.056;0.150;2022-12-29T08:42:41;1.05;;;0.43;;
70138;SDS011;57507;43.056;0.150;2022-12-29T08:45:07;0.98;;;0.38;;
70138;SDS011;57507;43.056;0.150;2022-12-29T08:47:34;0.70;;;0.30;;
70138;SDS011;57507;43.056;0.150;2022-12-29T08:50:00;0.28;;;0.20;;
70138;SDS011;57507;43.056;0.150;2022-12-29T08:52:27;3.72;;;1.05;;
70138;SDS011;57507;43.056;0.150;2022-12-29T08:54:54;0.95;;;0.55;;
70138;SDS011;57507;43.056;0.150;2022-12-29T08:57:20;1.73;;;0.35;;
70138;SDS011;57507;43.056;0.150;2022-12-29T08:59:47;1.13;;;0.70;;
70138;SDS011;57507;43.056;0.150;2022-12-29T09:02:14;2.53;;;0.70;;
70138;SDS011;57507;43.056;0.150;2022-12-29T09:04:40;1.17;;;0.50;;
70138;SDS011;57507;43.056;0.150;2022-12-29T09:07:07;5.05;;;0.80;;
70138;SDS011;57507;43.056;0.150;2022-12-29T09:09:34;1.13;;;0.68;;
70138;SDS011;57507;43.056;0.150;2022-12-29T09:12:01;2.20;;;0.80;;
70138;SDS011;57507;43.056;0.150;2022-12-29T09:14:28;2.80;;;1.15;;
70138;SDS011;57507;43.056;0.150;2022-12-29T09:16:54;1.17;;;0.50;;
70138;SDS011;57507;43.056;0.150;2022-12-29T09:19:39;1.52;;;0.47;;
70138;SDS011;57507;43.056;0.150;2022-12-29T09:22:06;1.48;;;1.10;;
70138;SDS011;57507;43.056;0.150;2022-12-29T09:24:33;2.28;;;0.50;;
70138;SDS011;57507;43.056;0.150;2022-12-29T09:26:59;0.98;;;0.43;;
70138;SDS011;57507;43.056;0.150;2022-12-29T09:29:26;1.67;;;0.47;;
70138;SDS011;57507;43.056;0.150;2022-12-29T09:31:52;0.82;;;0.50;;
70138;SDS011;57507;43.056;0.150;2022-12-29T09:34:19;1.77;;;0.60;;
70138;SDS011;57507;43.056;0.150;2022-12-29T09:36:45;1.05;;;0.90;;
70138;SDS011;57507;43.056;0.150;2022-12-29T09:39:12;1.48;;;0.80;;
70138;SDS011;57507;43.056;0.150;2022-12-29T09:41:39;1.20;;;0.80;;
70138;SDS011;57507;43.056;0.150;2022-12-29T09:44:21;2.10;;;1.15;;
70138;SDS011;57507;43.056;0.150;2022-12-29T09:46:49;10.80;;;4.22;;
70138;SDS011;57507;43.056;0.150;2022-12-29T09:51:53;2.67;;;1.52;;
70138;SDS011;57507;43.056;0.150;2022-12-29T09:54:33;1.48;;;0.70;;
70138;SDS011;57507;43.056;0.150;2022-12-29T09:57:02;1.85;;;0.50;;
70138;SDS011;57507;43.056;0.150;2022-12-29T09:59:38;0.98;;;0.80;;
70138;SDS011;57507;43.056;0.150;2022-12-29T10:04:33;0.90;;;0.77;;
70138;SDS011;57507;43.056;0.150;2022-12-29T10:12:18;1.50;;;0.70;;
70138;SDS011;57507;43.056;0.150;2022-12-29T10:14:58;2.78;;;1.13;;
70138;SDS011;57507;43.056;0.150;2022-12-29T10:17:36;1.05;;;0.70;;
70138;SDS011;57507;43.056;0.150;2022-12-29T10:25:22;0.50;;;0.50;;
70138;SDS011;57507;43.056;0.150;2022-12-29T10:27:51;2.35;;;1.00;;
70138;SDS011;57507;43.056;0.150;2022-12-29T10:30:20;2.15;;;0.70;;
70138;SDS011;57507;43.056;0.150;2022-12-29T10:35:18;1.83;;;0.68;;
70138;SDS011;57507;43.056;0.150;2022-12-29T10:41:00;3.83;;;0.50;;
70138;SDS011;57507;43.056;0.150;2022-12-29T10:43:01;2.53;;;0.68;;
70138;SDS011;57507;43.056;0.150;2022-12-29T10:45:32;0.85;;;0.30;;
70138;SDS011;57507;43.056;0.150;2022-12-29T10:48:01;0.55;;;0.40;;
70138;SDS011;57507;43.056;0.150;2022-12-29T10:50:29;1.60;;;0.70;;
70138;SDS011;57507;43.056;0.150;2022-12-29T10:52:58;1.88;;;1.08;;
70138;SDS011;57507;43.056;0.150;2022-12-29T10:55:27;1.70;;;1.10;;
70138;SDS011;57507;43.056;0.150;2022-12-29T10:57:55;5.72;;;1.92;;
70138;SDS011;57507;43.056;0.150;2022-12-29T11:00:22;4.60;;;2.10;;
70138;SDS011;57507;43.056;0.150;2022-12-29T11:07:53;2.55;;;1.30;;
70138;SDS011;57507;43.056;0.150;2022-12-29T11:10:34;1.42;;;1.00;;
70138;SDS011;57507;43.056;0.150;2022-12-29T11:13:04;0.90;;;0.70;;
70138;SDS011;57507;43.056;0.150;2022-12-29T11:15:41;2.95;;;0.93;;
70138;SDS011;57507;43.056;0.150;2022-12-29T11:18:21;2.40;;;1.45;;
70138;SDS011;57507;43.056;0.150;2022-12-29T11:20:49;3.25;;;0.88;;
70138;SDS011;57507;43.056;0.150;2022-12-29T11:26:22;1.83;;;1.05;;
70138;SDS011;57507;43.056;0.150;2022-12-29T11:28:42;1.63;;;1.10;;
70138;SDS011;57507;43.056;0.150;2022-12-29T11:31:09;4.20;;;1.67;;
70138;SDS011;57507;43.056;0.150;2022-12-29T11:33:37;1.83;;;0.80;;
70138;SDS011;57507;43.056;0.150;2022-12-29T11:36:25;2.03;;;1.00;;
70138;SDS011;57507;43.056;0.150;2022-12-29T11:38:51;2.85;;;1.20;;
70138;SDS011;57507;43.056;0.150;2022-12-29T11:41:26;1.92;;;1.38;;
70138;SDS011;57507;43.056;0.150;2022-12-29T11:43:53;2.35;;;1.50;;
70138;SDS011;57507;43.056;0.150;2022-12-29T11:46:28;2.58;;;1.42;;
70138;SDS011;57507;43.056;0.150;2022-12-29T11:48:56;3.63;;;1.35;;
70138;SDS011;57507;43.056;0.150;2022-12-29T11:51:29;2.92;;;1.50;;
70138;SDS011;57507;43.056;0.150;2022-12-29T11:53:56;3.35;;;1.30;;
70138;SDS011;57507;43.056;0.150;2022-12-29T11:56:36;2.92;;;0.98;;
70138;SDS011;57507;43.056;0.150;2022-12-29T12:01:50;4.43;;;1.50;;
70138;SDS011;57507;43.056;0.150;2022-12-29T12:04:17;1.95;;;1.08;;
70138;SDS011;57507;43.056;0.150;2022-12-29T12:06:48;3.30;;;1.40;;
70138;SDS011;57507;43.056;0.150;2022-12-29T12:09:22;3.33;;;1.40;;
70138;SDS011;57507;43.056;0.150;2022-12-29T12:11:51;3.42;;;1.20;;
70138;SDS011;57507;43.056;0.150;2022-12-29T12:14:33;4.55;;;1.50;;
70138;SDS011;57507;43.056;0.150;2022-12-29T12:17:02;2.45;;;1.30;;
70138;SDS011;57507;43.056;0.150;2022-12-29T12:19:38;3.22;;;1.25;;
70138;SDS011;57507;43.056;0.150;2022-12-29T12:24:56;2.88;;;1.40;;
70138;SDS011;57507;43.056;0.150;2022-12-29T12:27:37;4.40;;;1.17;;
70138;SDS011;57507;43.056;0.150;2022-12-29T12:30:11;2.75;;;1.55;;
70138;SDS011;57507;43.056;0.150;2022-12-29T12:32:40;3.35;;;1.42;;
70138;SDS011;57507;43.056;0.150;2022-12-29T12:35:23;5.07;;;1.70;;
70138;SDS011;57507;43.056;0.150;2022-12-29T12:50:47;3.45;;;1.85;;
70138;SDS011;57507;43.056;0.150;2022-12-29T12:53:26;3.63;;;1.40;;
70138;SDS011;57507;43.056;0.150;2022-12-29T12:56:08;2.92;;;1.40;;
70138;SDS011;57507;43.056;0.150;2022-12-29T12:58:49;3.03;;;1.27;;
70138;SDS011;57507;43.056;0.150;2022-12-29T13:11:51;3.53;;;1.25;;
70138;SDS011;57507;43.056;0.150;2022-12-29T13:14:34;2.30;;;1.17;;
70138;SDS011;57507;43.056;0.150;2022-12-29T13:17:16;1.98;;;1.15;;
70138;SDS011;57507;43.056;0.150;2022-12-29T13:37:16;2.15;;;0.90;;
70138;SDS011;57507;43.056;0.150;2022-12-29T13:39:46;1.83;;;0.80;;
70138;SDS011;57507;43.056;0.150;2022-12-29T13:42:14;1.38;;;0.80;;
70138;SDS011;57507;43.056;0.150;2022-12-29T13:44:44;2.33;;;1.10;;
70138;SDS011;57507;43.056;0.150;2022-12-29T13:49:45;2.10;;;0.87;;
70138;SDS011;57507;43.056;0.150;2022-12-29T13:52:17;2.60;;;0.88;;
70138;SDS011;57507;43.056;0.150;2022-12-29T13:55:07;2.40;;;1.00;;
70138;SDS011;57507;43.056;0.150;2022-12-29T13:57:48;2.33;;;0.95;;
70138;SDS011;57507;43.056;0.150;2022-12-29T14:00:17;2.33;;;0.90;;
70138;SDS011;57507;43.056;0.150;2022-12-29T14:07:47;2.83;;;0.90;;
70138;SDS011;57507;43.056;0.150;2022-12-29T14:15:46;3.95;;;1.08;;
70138;SDS011;57507;43.056;0.150;2022-12-29T14:18:17;2.45;;;1.08;;
70138;SDS011;57507;43.056;0.150;2022-12-29T14:28:37;3.05;;;1.80;;
70138;SDS011;57507;43.056;0.150;2022-12-29T14:33:41;2.05;;;1.40;;
70138;SDS011;57507;43.056;0.150;2022-12-29T14:44:27;2.47;;;1.67;;
70138;SDS011;57507;43.056;0.150;2022-12-29T14:49:27;2.78;;;1.50;;
70138;SDS011;57507;43.056;0.150;2022-12-29T14:52:04;3.05;;;2.15;;
70138;SDS011;57507;43.056;0.150;2022-12-29T14:56:58;3.67;;;2.00;;
70138;SDS011;57507;43.056;0.150;2022-12-29T14:59:26;4.88;;;2.45;;
70138;SDS011;57507;43.056;0.150;2022-12-29T15:01:52;3.53;;;1.83;;
70138;SDS011;57507;43.056;0.150;2022-12-29T15:04:23;4.25;;;1.90;;
70138;SDS011;57507;43.056;0.150;2022-12-29T15:06:51;3.40;;;1.77;;
70138;SDS011;57507;43.056;0.150;2022-12-29T15:11:53;3.95;;;1.88;;
70138;SDS011;57507;43.056;0.150;2022-12-29T15:14:30;3.53;;;1.60;;
70138;SDS011;57507;43.056;0.150;2022-12-29T15:16:57;3.67;;;1.88;;
70138;SDS011;57507;43.056;0.150;2022-12-29T15:19:24;5.35;;;1.98;;
70138;SDS011;57507;43.056;0.150;2022-12-29T15:21:52;3.38;;;1.75;;
70138;SDS011;57507;43.056;0.150;2022-12-29T15:24:19;2.28;;;1.35;;
70138;SDS011;57507;43.056;0.150;2022-12-29T15:26:46;2.53;;;1.67;;
70138;SDS011;57507;43.056;0.150;2022-12-29T15:31:58;3.03;;;1.85;;
70138;SDS011;57507;43.056;0.150;2022-12-29T15:34:29;3.65;;;1.58;;
70138;SDS011;57507;43.056;0.150;2022-12-29T15:36:56;2.78;;;1.40;;
70138;SDS011;57507;43.056;0.150;2022-12-29T15:39:31;3.33;;;1.50;;
70138;SDS011;57507;43.056;0.150;2022-12-29T15:44:38;4.68;;;2.13;;
70138;SDS011;57507;43.056;0.150;2022-12-29T15:47:08;2.83;;;1.45;;
70138;SDS011;57507;43.056;0.150;2022-12-29T15:49:36;5.55;;;2.28;;
70138;SDS011;57507;43.056;0.150;2022-12-29T15:52:06;4.68;;;1.85;;
70138;SDS011;57507;43.056;0.150;2022-12-29T15:54:33;3.63;;;1.33;;
70138;SDS011;57507;43.056;0.150;2022-12-29T15:57:00;3.75;;;1.30;;
70138;SDS011;57507;43.056;0.150;2022-12-29T15:59:33;6.47;;;1.13;;
70138;SDS011;57507;43.056;0.150;2022-12-29T16:02:00;1.50;;;0.90;;
70138;SDS011;57507;43.056;0.150;2022-12-29T16:04:29;1.55;;;0.73;;
70138;SDS011;57507;43.056;0.150;2022-12-29T16:07:02;0.75;;;0.75;;
70138;SDS011;57507;43.056;0.150;2022-12-29T16:09:41;3.80;;;1.00;;
70138;SDS011;57507;43.056;0.150;2022-12-29T16:12:19;2.47;;;0.60;;
70138;SDS011;57507;43.056;0.150;2022-12-29T16:14:59;1.73;;;0.68;;
70138;SDS011;57507;43.056;0.150;2022-12-29T16:17:28;1.90;;;0.57;;
70138;SDS011;57507;43.056;0.150;2022-12-29T16:24:49;1.10;;;0.70;;
70138;SDS011;57507;43.056;0.150;2022-12-29T16:29:42;0.80;;;0.40;;
70138;SDS011;57507;43.056;0.150;2022-12-29T16:35:17;1.20;;;0.55;;
70138;SDS011;57507;43.056;0.150;2022-12-29T16:37:45;0.50;;;0.38;;
70138;SDS011;57507;43.056;0.150;2022-12-29T16:42:54;1.27;;;0.70;;
70138;SDS011;57507;43.056;0.150;2022-12-29T16:50:17;1.08;;;0.50;;
70138;SDS011;57507;43.056;0.150;2022-12-29T16:52:46;0.38;;;0.35;;
70138;SDS011;57507;43.056;0.150;2022-12-29T16:55:16;0.50;;;0.40;;
70138;SDS011;57507;43.056;0.150;2022-12-29T16:57:43;0.85;;;0.40;;
70138;SDS011;57507;43.056;0.150;2022-12-29T17:00:26;0.50;;;0.40;;
70138;SDS011;57507;43.056;0.150;2022-12-29T17:02:54;0.30;;;0.28;;
70138;SDS011;57507;43.056;0.150;2022-12-29T17:05:21;0.40;;;0.40;;
70138;SDS011;57507;43.056;0.150;2022-12-29T17:07:48;0.30;;;0.30;;
70138;SDS011;57507;43.056;0.150;2022-12-29T17:10:16;1.23;;;0.50;;
70138;SDS011;57507;43.056;0.150;2022-12-29T17:12:43;0.63;;;0.40;;
70138;SDS011;57507;43.056;0.150;2022-12-29T17:15:14;0.73;;;0.50;;
70138;SDS011;57507;43.056;0.150;2022-12-29T17:17:47;0.50;;;0.50;;
70138;SDS011;57507;43.056;0.150;2022-12-29T17:20:25;0.50;;;0.50;;
70138;SDS011;57507;43.056;0.150;2022-12-29T17:22:52;1.20;;;0.68;;
70138;SDS011;57507;43.056;0.150;2022-12-29T17:25:20;1.60;;;0.50;;
70138;SDS011;57507;43.056;0.150;2022-12-29T17:27:48;0.90;;;0.55;;
70138;SDS011;57507;43.056;0.150;2022-12-29T17:30:17;1.05;;;0.50;;
70138;SDS011;57507;43.056;0.150;2022-12-29T17:32:47;1.02;;;0.75;;
70138;SDS011;57507;43.056;0.150;2022-12-29T17:35:15;1.02;;;0.73;;
70138;SDS011;57507;43.056;0.150;2022-12-29T17:37:42;2.20;;;0.93;;
70138;SDS011;57507;43.056;0.150;2022-12-29T17:40:13;1.75;;;0.80;;
70138;SDS011;57507;43.056;0.150;2022-12-29T17:42:46;2.40;;;1.00;;
70138;SDS011;57507;43.056;0.150;2022-12-29T17:45:17;1.35;;;1.17;;
70138;SDS011;57507;43.056;0.150;2022-12-29T17:47:45;1.60;;;1.05;;